createdAt,value
2022-12-27T00:00:08.369Z,2.53
2022-12-27T00:02:37.934Z,3.03
2022-12-27T00:05:07.619Z,2.17
2022-12-27T00:07:34.459Z,2.35
2022-12-27T00:10:01.276Z,3.30
2022-12-27T00:12:28.017Z,2.92
2022-12-27T00:14:54.707Z,3.45
2022-12-27T00:17:21.410Z,3.95
2022-12-27T00:19:48.159Z,2.70
2022-12-27T00:22:15.113Z,3.00
2022-12-27T00:24:41.890Z,2.47
2022-12-27T00:27:08.894Z,3.58
2022-12-27T00:29:35.830Z,3.97
2022-12-27T00:32:02.608Z,3.83
2022-12-27T00:34:29.426Z,2.15
2022-12-27T00:36:56.251Z,3.55
2022-12-27T00:39:23.207Z,3.70
2022-12-27T00:41:49.935Z,4.05
2022-12-27T00:44:16.738Z,2.70
2022-12-27T00:46:43.459Z,4.30
2022-12-27T00:49:10.365Z,2.55
2022-12-27T00:51:37.142Z,2.13
2022-12-27T00:54:03.995Z,1.40
2022-12-27T00:56:31.381Z,3.97
2022-12-27T00:59:00.476Z,3.13
2022-12-27T01:01:31.447Z,1.95
2022-12-27T01:03:58.477Z,2.35
2022-12-27T01:06:28.996Z,3.03
2022-12-27T01:08:56.789Z,2.10
2022-12-27T01:11:24.535Z,3.97
2022-12-27T01:13:51.333Z,4.28
2022-12-27T01:16:22.031Z,3.30
2022-12-27T01:18:49.613Z,3.42
2022-12-27T01:21:20.672Z,3.47
2022-12-27T01:23:48.376Z,4.55
2022-12-27T01:26:20.725Z,2.08
2022-12-27T01:28:48.737Z,2.13
2022-12-27T01:31:19.955Z,2.38
2022-12-27T01:33:46.969Z,4.40
2022-12-27T01:36:19.914Z,3.15
2022-12-27T01:38:49.909Z,2.30
2022-12-27T01:41:42.937Z,2.35
2022-12-27T01:44:40.867Z,4.05
2022-12-27T01:47:33.392Z,3.58
2022-12-27T01:50:06.460Z,1.60
2022-12-27T01:52:45.620Z,4.95
2022-12-27T01:55:37.237Z,2.67
2022-12-27T01:58:15.230Z,3.25
2022-12-27T02:00:44.195Z,2.47
2022-12-27T02:03:13.835Z,2.13
2022-12-27T02:05:42.421Z,4.10
2022-12-27T02:08:22.616Z,4.63
2022-12-27T02:10:50.550Z,3.88
2022-12-27T02:13:18.591Z,3.95
2022-12-27T02:15:45.376Z,4.97
2022-12-27T02:18:12.191Z,2.50
2022-12-27T02:21:04.694Z,4.25
2022-12-27T02:24:04.314Z,3.03
2022-12-27T02:26:40.413Z,5.03
2022-12-27T02:29:22.683Z,3.35
2022-12-27T02:31:59.284Z,3.90
2022-12-27T02:34:34.852Z,5.82
2022-12-27T02:37:09.647Z,2.83
2022-12-27T02:39:39.959Z,3.63
2022-12-27T02:42:26.738Z,4.32
2022-12-27T02:45:12.703Z,2.50
2022-12-27T02:47:57.909Z,3.08
2022-12-27T02:50:49.138Z,3.70
2022-12-27T02:53:37.811Z,2.38
2022-12-27T02:56:44.432Z,2.10
2022-12-27T03:00:11.160Z,2.15
2022-12-27T03:03:23.850Z,5.03
2022-12-27T03:06:27.844Z,3.53
2022-12-27T03:09:34.709Z,4.82
2022-12-27T03:12:28.224Z,4.32
2022-12-27T03:15:21.451Z,3.33
2022-12-27T03:17:55.871Z,3.70
2022-12-27T03:23:27.419Z,3.47
2022-12-27T03:25:56.565Z,3.08
2022-12-27T03:28:46.339Z,4.40
2022-12-27T03:31:45.997Z,3.20
2022-12-27T03:34:33.150Z,4.53
2022-12-27T03:37:23.380Z,3.97
2022-12-27T03:40:05.507Z,6.25
2022-12-27T03:42:55.800Z,2.50
2022-12-27T03:45:43.136Z,4.72
2022-12-27T03:48:14.197Z,4.65
2022-12-27T03:50:50.108Z,2.97
2022-12-27T03:53:25.012Z,2.45
2022-12-27T03:55:52.208Z,3.85
2022-12-27T03:58:19.317Z,4.55
2022-12-27T04:00:46.151Z,3.17
2022-12-27T04:03:12.817Z,3.95
2022-12-27T04:05:39.569Z,3.38
2022-12-27T04:08:24.877Z,3.10
2022-12-27T04:11:10.361Z,3.90
2022-12-27T04:13:55.997Z,5.65
2022-12-27T04:16:41.341Z,2.45
2022-12-27T04:19:26.734Z,3.13
2022-12-27T04:22:12.316Z,4.35
2022-12-27T04:24:57.826Z,2.42
2022-12-27T04:27:43.496Z,3.47
2022-12-27T04:30:32.713Z,4.03
2022-12-27T04:33:18.056Z,2.80
2022-12-27T04:35:44.761Z,4.78
2022-12-27T04:38:11.503Z,1.92
2022-12-27T04:40:56.732Z,5.25
2022-12-27T04:43:42.043Z,2.80
2022-12-27T04:46:39.709Z,3.92
2022-12-27T04:49:37.877Z,4.95
2022-12-27T04:52:33.896Z,2.50
2022-12-27T04:55:22.179Z,4.05
2022-12-27T04:57:49.723Z,3.03
2022-12-27T05:00:36.342Z,2.72
2022-12-27T05:03:08.327Z,2.33
2022-12-27T05:05:37.686Z,3.25
2022-12-27T05:08:25.062Z,2.53
2022-12-27T05:11:11.228Z,2.28
2022-12-27T05:13:56.402Z,4.50
2022-12-27T05:16:23.161Z,2.47
2022-12-27T05:18:50.020Z,3.67
2022-12-27T05:21:16.699Z,2.45
2022-12-27T05:24:05.367Z,3.72
2022-12-27T05:45:04.399Z,3.20
2022-12-27T05:55:33.334Z,4.07
2022-12-27T06:19:26.573Z,3.45
2022-12-27T06:24:33.864Z,4.53
2022-12-27T06:29:41.202Z,4.35
2022-12-27T06:32:07.936Z,5.10
2022-12-27T06:34:34.702Z,8.23
2022-12-27T06:37:01.484Z,6.25
2022-12-27T06:39:28.231Z,6.15
2022-12-27T06:41:56.184Z,5.45
2022-12-27T06:44:23.144Z,4.15
2022-12-27T06:46:49.873Z,5.75
2022-12-27T06:49:16.586Z,4.15
2022-12-27T06:51:43.288Z,4.90
2022-12-27T06:54:10.013Z,5.55
2022-12-27T06:56:36.912Z,4.28
2022-12-27T06:59:03.704Z,4.70
2022-12-27T07:01:30.706Z,4.65
2022-12-27T07:03:59.878Z,10.02
2022-12-27T07:06:29.740Z,6.68
2022-12-27T07:08:57.892Z,4.05
2022-12-27T07:11:25.507Z,5.63
2022-12-27T07:13:54.150Z,8.80
2022-12-27T07:16:23.972Z,7.18
2022-12-27T07:18:51.044Z,5.63
2022-12-27T07:21:20.507Z,8.43
2022-12-27T07:23:47.646Z,11.07
2022-12-27T07:26:23.776Z,14.75
2022-12-27T07:28:53.965Z,13.18
2022-12-27T07:31:26.555Z,14.07
2022-12-27T07:33:53.756Z,11.38
2022-12-27T07:36:24.071Z,11.68
2022-12-27T07:38:51.119Z,26.83
2022-12-27T07:41:36.373Z,28.00
2022-12-27T07:44:03.792Z,18.08
2022-12-27T07:46:30.646Z,11.43
2022-12-27T07:48:59.164Z,7.47
2022-12-27T07:51:27.674Z,8.43
2022-12-27T07:53:55.036Z,14.93
2022-12-27T07:56:26.406Z,11.82
2022-12-27T07:58:55.211Z,24.65
2022-12-27T08:01:23.442Z,25.17
2022-12-27T08:03:50.432Z,23.13
2022-12-27T08:06:27.308Z,20.05
2022-12-27T08:08:54.794Z,12.75
2022-12-27T08:11:21.947Z,12.45
2022-12-27T08:13:48.811Z,8.60
2022-12-27T08:16:18.847Z,10.48
2022-12-27T08:18:45.981Z,9.30
2022-12-27T08:21:13.043Z,6.70
2022-12-27T08:23:40.001Z,6.22
2022-12-27T08:26:07.821Z,4.10
2022-12-27T08:28:35.266Z,6.30
2022-12-27T08:31:05.065Z,4.82
2022-12-27T08:33:31.818Z,4.50
2022-12-27T08:35:58.674Z,4.40
2022-12-27T08:38:25.457Z,3.67
2022-12-27T08:40:52.177Z,4.43
2022-12-27T08:43:19.199Z,5.35
2022-12-27T08:45:45.983Z,6.28
2022-12-27T08:48:12.789Z,6.15
2022-12-27T08:50:39.565Z,4.22
2022-12-27T08:53:06.479Z,5.85
2022-12-27T08:55:34.168Z,3.30
2022-12-27T08:58:03.758Z,3.88
2022-12-27T09:00:31.405Z,6.38
2022-12-27T09:02:59.087Z,4.90
2022-12-27T09:05:27.096Z,6.10
2022-12-27T09:07:53.955Z,6.43
2022-12-27T09:10:22.561Z,8.50
2022-12-27T09:12:49.391Z,8.43
2022-12-27T09:15:16.387Z,12.13
2022-12-27T09:17:43.175Z,9.48
2022-12-27T09:20:12.385Z,7.10
2022-12-27T09:22:40.053Z,7.70
2022-12-27T09:25:07.655Z,11.20
2022-12-27T09:27:36.157Z,15.25
2022-12-27T09:30:05.005Z,10.60
2022-12-27T09:32:32.181Z,19.63
2022-12-27T09:34:58.963Z,13.23
2022-12-27T09:37:25.931Z,14.65
2022-12-27T09:39:52.671Z,17.90
2022-12-27T09:43:01.955Z,13.48
2022-12-27T09:45:21.009Z,12.73
2022-12-27T09:48:06.050Z,12.77
2022-12-27T09:50:58.964Z,26.77
2022-12-27T09:53:56.240Z,17.45
2022-12-27T09:56:47.426Z,21.67
2022-12-27T09:59:37.450Z,23.58
2022-12-27T10:02:20.247Z,18.92
2022-12-27T10:05:18.670Z,20.10
2022-12-27T10:07:46.044Z,25.70
2022-12-27T10:10:26.539Z,32.17
2022-12-27T10:13:19.613Z,17.10
2022-12-27T10:16:08.252Z,16.38
2022-12-27T10:18:53.467Z,14.27
2022-12-27T10:21:24.439Z,13.52
2022-12-27T10:24:12.697Z,9.85
2022-12-27T10:26:39.401Z,16.38
2022-12-27T10:29:26.632Z,14.02
2022-12-27T10:31:53.537Z,7.22
2022-12-27T10:34:24.704Z,5.80
2022-12-27T10:36:53.304Z,5.93
2022-12-27T10:39:32.321Z,5.30
2022-12-27T10:42:21.588Z,4.65
2022-12-27T10:44:48.331Z,7.65
2022-12-27T10:47:16.694Z,7.70
2022-12-27T10:50:01.998Z,4.82
2022-12-27T10:52:34.325Z,4.43
2022-12-27T10:55:01.076Z,5.80
2022-12-27T10:57:30.520Z,5.35
2022-12-27T11:00:22.831Z,11.80
2022-12-27T11:02:57.783Z,26.38
2022-12-27T11:05:27.957Z,7.70
2022-12-27T11:07:54.845Z,17.70
2022-12-27T11:10:25.603Z,7.40
2022-12-27T11:12:57.144Z,6.97
2022-12-27T11:15:24.407Z,6.95
2022-12-27T11:17:54.781Z,8.25
2022-12-27T11:20:43.980Z,5.93
2022-12-27T11:23:10.731Z,6.45
2022-12-27T11:25:59.655Z,5.70
2022-12-27T11:28:33.762Z,5.72
2022-12-27T11:31:04.892Z,5.75
2022-12-27T11:33:41.193Z,3.40
2022-12-27T11:36:10.843Z,5.00
2022-12-27T11:38:39.207Z,3.83
2022-12-27T11:41:27.865Z,6.72
2022-12-27T11:44:03.099Z,3.97
2022-12-27T11:46:59.032Z,4.10
2022-12-27T11:49:35.850Z,4.35
2022-12-27T11:52:32.545Z,4.40
2022-12-27T11:55:24.540Z,5.03
2022-12-27T11:58:13.300Z,5.15
2022-12-27T12:01:14.149Z,7.32
2022-12-27T12:03:49.619Z,4.25
2022-12-27T12:06:34.477Z,6.38
2022-12-27T12:09:26.798Z,7.20
2022-12-27T12:12:01.213Z,6.47
2022-12-27T12:16:57.539Z,6.88
2022-12-27T12:19:48.588Z,3.38
2022-12-27T12:22:21.073Z,4.63
2022-12-27T12:25:06.017Z,4.78
2022-12-27T12:28:56.451Z,4.65
2022-12-27T12:31:34.703Z,4.07
2022-12-27T12:34:26.296Z,3.90
2022-12-27T12:37:05.063Z,5.13
2022-12-27T12:40:09.573Z,5.65
2022-12-27T12:42:54.946Z,6.68
2022-12-27T12:45:27.384Z,3.78
2022-12-27T12:48:09.474Z,4.47
2022-12-27T12:50:48.228Z,3.00
2022-12-27T12:53:20.989Z,5.20
2022-12-27T12:55:55.437Z,4.65
2022-12-27T13:01:36.680Z,4.13
2022-12-27T13:04:36.781Z,5.60
2022-12-27T13:07:18.703Z,3.63
2022-12-27T13:09:55.456Z,4.50
2022-12-27T13:12:53.065Z,5.57
2022-12-27T13:15:41.710Z,9.10
2022-12-27T13:18:30.165Z,8.95
2022-12-27T13:21:14.086Z,7.15
2022-12-27T13:23:44.885Z,9.55
2022-12-27T13:26:32.369Z,6.50
2022-12-27T13:29:23.478Z,4.18
2022-12-27T13:32:07.160Z,5.20
2022-12-27T13:34:39.824Z,4.93
2022-12-27T13:37:28.257Z,5.50
2022-12-27T13:40:06.574Z,6.72
2022-12-27T13:42:51.045Z,6.07
2022-12-27T13:45:37.950Z,3.63
2022-12-27T13:48:23.351Z,7.30
2022-12-27T13:51:08.633Z,3.53
2022-12-27T13:54:01.268Z,7.20
2022-12-27T13:57:02.831Z,6.53
2022-12-27T13:59:44.851Z,6.47
2022-12-27T14:02:32.987Z,12.43
2022-12-27T14:05:38.421Z,9.98
2022-12-27T14:08:42.912Z,10.68
2022-12-27T14:11:32.077Z,8.93
2022-12-27T14:14:00.127Z,8.50
2022-12-27T14:16:42.411Z,7.28
2022-12-27T14:19:15.062Z,5.72
2022-12-27T14:22:26.889Z,5.45
2022-12-27T14:25:12.952Z,10.77
2022-12-27T14:28:16.985Z,19.02
2022-12-27T14:31:02.704Z,7.00
2022-12-27T14:33:32.385Z,8.20
2022-12-27T14:36:32.252Z,7.82
2022-12-27T14:39:01.947Z,8.35
2022-12-27T14:42:02.146Z,5.80
2022-12-27T14:44:47.501Z,4.97
2022-12-27T14:47:46.426Z,4.72
2022-12-27T14:50:50.603Z,4.55
2022-12-27T14:53:36.246Z,4.35
2022-12-27T14:56:21.070Z,8.02
2022-12-27T14:59:15.544Z,7.35
2022-12-27T15:02:23.052Z,8.63
2022-12-27T15:05:14.892Z,6.43
2022-12-27T15:07:41.485Z,9.90
2022-12-27T15:10:33.870Z,12.50
2022-12-27T15:13:37.782Z,15.75
2022-12-27T15:16:45.226Z,12.88
2022-12-27T15:19:21.107Z,16.17
2022-12-27T15:22:11.582Z,13.25
2022-12-27T15:25:09.715Z,12.82
2022-12-27T15:28:00.690Z,7.75
2022-12-27T15:30:49.345Z,7.38
2022-12-27T15:34:03.259Z,8.00
2022-12-27T15:36:42.440Z,29.52
2022-12-27T15:39:33.958Z,25.52
2022-12-27T15:42:24.400Z,31.95
2022-12-27T15:44:55.223Z,21.27
2022-12-27T15:47:46.887Z,12.98
2022-12-27T15:50:51.553Z,15.55
2022-12-27T15:53:48.763Z,11.27
2022-12-27T15:56:53.410Z,12.40
2022-12-27T15:59:45.680Z,12.07
2022-12-27T16:02:48.127Z,14.50
2022-12-27T16:05:21.944Z,11.73
2022-12-27T16:08:00.913Z,10.95
2022-12-27T16:10:30.795Z,10.88
2022-12-27T16:13:36.046Z,8.85
2022-12-27T16:16:32.627Z,10.02
2022-12-27T16:19:19.296Z,10.35
2022-12-27T16:21:46.940Z,11.63
2022-12-27T16:24:18.388Z,8.50
2022-12-27T16:26:58.344Z,13.05
2022-12-27T16:29:34.837Z,10.23
2022-12-27T16:32:20.819Z,13.65
2022-12-27T16:34:51.534Z,21.85
2022-12-27T16:37:45.109Z,41.88
2022-12-27T16:40:36.812Z,17.25
2022-12-27T16:43:09.622Z,15.82
2022-12-27T16:45:39.360Z,14.32
2022-12-27T16:48:24.242Z,12.55
2022-12-27T16:53:44.374Z,12.15
2022-12-27T16:56:11.038Z,11.43
2022-12-27T16:58:39.325Z,15.27
2022-12-27T17:01:27.659Z,12.05
2022-12-27T17:03:58.192Z,13.43
2022-12-27T17:06:33.220Z,11.63
2022-12-27T17:09:10.364Z,12.43
2022-12-27T17:11:52.546Z,11.68
2022-12-27T17:14:34.420Z,10.40
2022-12-27T17:17:07.599Z,10.98
2022-12-27T17:19:42.300Z,8.85
2022-12-27T17:22:15.407Z,9.40
2022-12-27T17:24:45.453Z,7.45
2022-12-27T17:27:21.140Z,9.75
2022-12-27T17:29:56.671Z,12.65
2022-12-27T17:32:48.570Z,8.27
2022-12-27T17:35:42.886Z,7.80
2022-12-27T17:38:33.922Z,10.03
2022-12-27T17:41:47.815Z,9.40
2022-12-27T17:44:40.601Z,9.50
2022-12-27T17:47:45.074Z,7.80
2022-12-27T17:50:20.977Z,8.13
2022-12-27T17:53:28.479Z,8.10
2022-12-27T17:56:31.127Z,8.57
2022-12-27T17:59:05.228Z,7.15
2022-12-27T18:01:37.071Z,6.75
2022-12-27T18:04:06.132Z,7.30
2022-12-27T18:06:35.568Z,4.68
2022-12-27T18:09:02.781Z,7.15
2022-12-27T18:11:31.541Z,6.35
2022-12-27T18:14:00.500Z,8.75
2022-12-27T18:16:38.930Z,9.80
2022-12-27T18:19:05.901Z,7.82
2022-12-27T18:21:32.955Z,7.00
2022-12-27T18:23:59.824Z,7.93
2022-12-27T18:27:00.003Z,5.80
2022-12-27T18:29:26.870Z,6.95
2022-12-27T18:31:56.952Z,11.45
2022-12-27T18:34:32.789Z,49.58
2022-12-27T18:37:04.754Z,24.08
2022-12-27T18:39:37.811Z,15.60
2022-12-27T18:42:31.294Z,10.52
2022-12-27T18:45:03.731Z,10.20
2022-12-27T18:47:39.971Z,9.73
2022-12-27T18:50:17.899Z,10.40
2022-12-27T18:52:49.803Z,11.60
2022-12-27T18:55:26.821Z,14.85
2022-12-27T18:58:19.931Z,12.82
2022-12-27T19:01:06.305Z,12.63
2022-12-27T19:03:40.218Z,16.55
2022-12-27T19:08:51.481Z,10.75
2022-12-27T19:11:25.565Z,17.48
2022-12-27T19:13:55.940Z,12.20
2022-12-27T19:16:34.368Z,17.02
2022-12-27T19:19:17.784Z,13.00
2022-12-27T19:21:44.729Z,18.60
2022-12-27T19:24:23.747Z,15.40
2022-12-27T19:26:55.676Z,18.67
2022-12-27T19:29:25.952Z,17.88
2022-12-27T19:32:02.433Z,17.60
2022-12-27T19:34:32.818Z,16.13
2022-12-27T19:36:59.689Z,16.38
2022-12-27T19:39:30.830Z,15.38
2022-12-27T19:42:00.828Z,17.63
2022-12-27T19:44:28.828Z,20.55
2022-12-27T19:46:55.717Z,19.88
2022-12-27T19:49:41.590Z,22.70
2022-12-27T19:52:17.976Z,21.30
2022-12-27T19:54:45.448Z,19.00
2022-12-27T19:57:14.894Z,22.45
2022-12-27T19:59:41.889Z,21.95
2022-12-27T20:02:09.410Z,21.83
2022-12-27T20:04:36.345Z,23.42
2022-12-27T20:07:03.171Z,23.92
2022-12-27T20:09:30.154Z,23.02
2022-12-27T20:11:57.017Z,21.80
2022-12-27T20:14:23.907Z,23.85
2022-12-27T20:16:50.709Z,24.02
2022-12-27T20:19:18.237Z,25.35
2022-12-27T20:21:45.372Z,25.55
2022-12-27T20:24:13.236Z,22.20
2022-12-27T20:26:41.071Z,23.23
2022-12-27T20:29:07.873Z,19.08
2022-12-27T20:31:40.654Z,21.67
2022-12-27T20:34:11.173Z,18.92
2022-12-27T20:36:38.070Z,21.13
2022-12-27T20:39:05.747Z,21.73
2022-12-27T20:41:32.494Z,17.73
2022-12-27T20:43:59.600Z,21.25
2022-12-27T20:46:26.408Z,17.83
2022-12-27T20:48:55.651Z,17.83
2022-12-27T20:51:25.217Z,19.65
2022-12-27T20:53:59.717Z,21.33
2022-12-27T20:56:27.094Z,19.90
2022-12-27T20:58:53.783Z,18.25
2022-12-27T21:01:23.700Z,21.17
2022-12-27T21:03:50.510Z,20.25
2022-12-27T21:06:20.482Z,20.98
2022-12-27T21:08:54.385Z,16.55
2022-12-27T21:11:33.603Z,13.82
2022-12-27T21:14:02.093Z,12.00
2022-12-27T21:16:30.684Z,14.45
2022-12-27T21:18:58.083Z,18.45
2022-12-27T21:21:28.650Z,24.75
2022-12-27T21:23:58.789Z,20.48
2022-12-27T21:26:28.909Z,21.08
2022-12-27T21:28:57.328Z,18.92
2022-12-27T21:31:24.900Z,20.30
2022-12-27T21:33:52.188Z,18.90
2022-12-27T21:36:21.196Z,22.60
2022-12-27T21:38:48.232Z,19.27
2022-12-27T21:41:26.344Z,19.98
2022-12-27T21:43:53.551Z,18.58
2022-12-27T21:46:23.073Z,12.73
2022-12-27T21:48:58.248Z,12.82
2022-12-27T21:51:25.871Z,14.93
2022-12-27T21:53:53.197Z,10.45
2022-12-27T21:56:21.073Z,11.48
2022-12-27T21:58:48.359Z,11.30
2022-12-27T22:01:17.598Z,10.60
2022-12-27T22:03:46.787Z,11.40
2022-12-27T22:06:15.793Z,11.07
2022-12-27T22:08:44.078Z,11.07
2022-12-27T22:11:11.619Z,11.82
2022-12-27T22:13:38.897Z,11.98
2022-12-27T22:16:08.087Z,15.93
2022-12-27T22:18:36.900Z,14.02
2022-12-27T22:21:06.443Z,10.70
2022-12-27T22:23:34.566Z,12.32
2022-12-27T22:26:01.685Z,11.30
2022-12-27T22:28:28.739Z,13.00
2022-12-27T22:30:55.473Z,12.77
2022-12-27T22:33:22.449Z,12.85
2022-12-27T22:35:49.145Z,13.90
2022-12-27T22:38:15.811Z,12.68
2022-12-27T22:40:46.554Z,15.63
2022-12-27T22:43:13.942Z,13.40
2022-12-27T22:45:42.546Z,14.77
2022-12-27T22:48:09.470Z,13.07
2022-12-27T22:50:37.918Z,18.85
2022-12-27T22:53:04.760Z,15.38
2022-12-27T22:55:31.534Z,20.30
2022-12-27T22:57:58.233Z,17.92
2022-12-27T23:00:25.132Z,19.63
2022-12-27T23:02:52.057Z,17.50
2022-12-27T23:05:18.770Z,26.60
2022-12-27T23:08:04.412Z,19.80
2022-12-27T23:10:32.104Z,16.15
2022-12-27T23:12:58.781Z,19.13
2022-12-27T23:15:25.507Z,17.15
2022-12-27T23:17:52.569Z,13.82
2022-12-27T23:20:19.690Z,13.77
2022-12-27T23:22:46.441Z,10.93
2022-12-27T23:25:13.189Z,11.68
2022-12-27T23:27:39.854Z,12.13
2022-12-27T23:30:07.081Z,11.50
2022-12-27T23:32:33.782Z,11.63
2022-12-27T23:35:00.422Z,10.98
2022-12-27T23:37:27.124Z,11.15
2022-12-27T23:39:53.788Z,10.68
2022-12-27T23:42:20.481Z,9.98
2022-12-27T23:44:47.175Z,10.60
2022-12-27T23:47:13.883Z,10.52
2022-12-27T23:49:40.535Z,9.98
2022-12-27T23:52:07.249Z,9.77
2022-12-27T23:54:33.916Z,10.15
2022-12-27T23:57:19.470Z,11.70
2022-12-27T23:59:47.577Z,12.07
